Orbital elements of BREEZE-M R/B
| Launched | 10 December 2011 |
| Flight ended | – |
| Launch site | Tyuratam Missile and Space Center, Kazakhstan (Also known as Baikonur Cosmodrome) |
| Owner | Commonwealth of Independent States (former USSR) |
| NORAD ID | 37952 |
| Date fetched |
Epoch osculation |
Inc. [°] |
Ecc. | RA asc node [hr] |
Arg Peri. [°] |
Mean anom [°] |
Mean motion [rev/day] |
Abs. mag |
| Date fetched |
Epoch osculation |
Inc. [°] |
Ecc. | RA asc node [hr] |
Arg Peri. [°] |
Mean anom [°] |
Mean motion [rev/day] |
Abs. mag |
| 2026 May 01 17:56 | 2026 Apr 30 04:35:50 | 11.2730 | 0.07969 | 3.3766 | 179.3794 | 4.9885 | 0.89626 | – |
| 2026 Apr 30 17:56 | 2026 Apr 30 04:35:50 | 11.2730 | 0.07969 | 3.3766 | 179.3794 | 4.9885 | 0.89626 | – |
| 2026 Apr 29 17:57 | 2026 Apr 24 05:42:23 | 11.2579 | 0.07968 | 3.3794 | 179.2568 | 4.9885 | 0.89626 | – |
| 2026 Apr 28 17:56 | 2026 Apr 24 05:42:23 | 11.2579 | 0.07968 | 3.3794 | 179.2568 | 4.9885 | 0.89626 | – |
| 2026 Apr 27 17:58 | 2026 Apr 24 05:42:23 | 11.2579 | 0.07968 | 3.3794 | 179.2568 | 4.9885 | 0.89626 | – |
| 2026 Apr 26 17:58 | 2026 Apr 24 05:42:23 | 11.2579 | 0.07968 | 3.3794 | 179.2568 | 4.9885 | 0.89626 | – |
| 2026 Apr 25 17:58 | 2026 Apr 24 05:42:23 | 11.2579 | 0.07968 | 3.3794 | 179.2568 | 4.9885 | 0.89626 | – |
| 2026 Apr 24 17:59 | 2026 Apr 24 05:42:23 | 11.2579 | 0.07968 | 3.3794 | 179.2568 | 4.9885 | 0.89626 | – |
| 2026 Apr 23 17:57 | 2026 Apr 19 01:17:26 | 11.2453 | 0.07967 | 3.3819 | 179.1563 | 4.9885 | 0.89626 | – |
| 2026 Apr 22 17:57 | 2026 Apr 19 01:17:26 | 11.2453 | 0.07967 | 3.3819 | 179.1563 | 4.9885 | 0.89626 | – |
| 2026 Apr 21 17:57 | 2026 Apr 19 01:17:26 | 11.2453 | 0.07967 | 3.3819 | 179.1563 | 4.9885 | 0.89626 | – |
| 2026 Apr 20 17:57 | 2026 Apr 19 01:17:26 | 11.2453 | 0.07967 | 3.3819 | 179.1563 | 4.9885 | 0.89626 | – |
| 2026 Apr 19 17:58 | 2026 Apr 19 01:17:26 | 11.2453 | 0.07967 | 3.3819 | 179.1563 | 4.9885 | 0.89626 | – |
| 2026 Apr 18 17:56 | 2026 Apr 12 22:10:49 | 11.2302 | 0.07968 | 3.3848 | 179.0383 | 4.9885 | 0.89626 | – |
| 2026 Apr 16 17:57 | 2026 Apr 12 22:10:49 | 11.2302 | 0.07968 | 3.3848 | 179.0383 | 4.9885 | 0.89626 | – |
| 2026 Apr 14 17:57 | 2026 Apr 12 22:10:49 | 11.2302 | 0.07968 | 3.3848 | 179.0383 | 4.9885 | 0.89626 | – |
| 2026 Apr 13 17:57 | 2026 Apr 12 22:10:49 | 11.2302 | 0.07968 | 3.3848 | 179.0383 | 4.9885 | 0.89626 | – |
| 2026 Apr 12 17:57 | 2026 Apr 08 11:10:56 | 11.2186 | 0.07968 | 3.3869 | 178.9470 | 4.9885 | 0.89626 | – |
| 2026 Apr 11 17:57 | 2026 Apr 08 11:10:56 | 11.2186 | 0.07968 | 3.3869 | 178.9470 | 4.9885 | 0.89626 | – |
| 2026 Apr 10 17:58 | 2026 Apr 08 11:10:56 | 11.2186 | 0.07968 | 3.3869 | 178.9470 | 4.9885 | 0.89626 | – |
| 2026 Apr 09 18:01 | 2026 Apr 08 11:10:56 | 11.2186 | 0.07968 | 3.3869 | 178.9470 | 4.9885 | 0.89626 | – |
| 2026 Apr 08 17:57 | 2026 Apr 08 11:10:56 | 11.2186 | 0.07968 | 3.3869 | 178.9470 | 4.9885 | 0.89626 | – |
| 2026 Apr 07 17:57 | 2026 Apr 02 06:00:37 | 11.2021 | 0.07968 | 3.3898 | 178.8124 | 4.9885 | 0.89626 | – |
| 2026 Apr 06 17:57 | 2026 Apr 02 06:00:37 | 11.2021 | 0.07968 | 3.3898 | 178.8124 | 4.9885 | 0.89626 | – |
| 2026 Apr 05 17:56 | 2026 Apr 02 06:00:37 | 11.2021 | 0.07968 | 3.3898 | 178.8124 | 4.9885 | 0.89626 | – |
| 2026 Apr 04 17:57 | 2026 Apr 02 06:00:37 | 11.2021 | 0.07968 | 3.3898 | 178.8124 | 4.9885 | 0.89626 | – |